EXS7AJ EGCC-LGSK
Flight info
| Callsign | EXS7AJ |
|---|---|
| Flight time | 3h 7m |
| Altitude | 37000 |
| Route | SANBA N859 HON L15 FINMA DCT CHT DCT ITVIP DCT KONAN DCT KOK UL607 REMBA DCT LIRSU DCT ULNOK DCT VIBOM DCT NOMBO DCT RIDAR DCT RADIZ DCT NEMEK DCT ETOBI DCT MEDUX UM867 KOGAT DCT ERANA UL737 TSL UL617 IBIDI |
| Aircraft | B738/M-SDE2E3FGHIRWXY/LB1 |
Departure
| Time | 2026-05-09 08:53 |
|---|---|
| Airport | Manchester Airport (EGCC) |
Arrival
| Time | 2026-05-09 12:00 |
|---|---|
| Airport | Skiathos Island National Airport (LGSK) |
| Time | Latitude | Longitude | Altitude | Speed | Heading |
|---|---|---|---|---|---|
| 2026-05-09 08:30 | 53.36422 | -2.28078 | 246 ft | 0 kts | 225° |
| 2026-05-09 08:42 | 53.36425 | -2.28074 | 246 ft | 3 kts | 225° |
| 2026-05-09 08:42 | 53.36444 | -2.28042 | 246 ft | 4 kts | 225° |
| 2026-05-09 08:43 | 53.36459 | -2.28017 | 246 ft | 4 kts | 216° |
| 2026-05-09 08:43 | 53.36481 | -2.28001 | 246 ft | 4 kts | 171° |
| 2026-05-09 08:43 | 53.36500 | -2.28020 | 246 ft | 4 kts | 135° |
| 2026-05-09 08:43 | 53.36510 | -2.28036 | 246 ft | 1 kts | 135° |
| 2026-05-09 08:46 | 53.36505 | -2.28028 | 246 ft | 4 kts | 135° |
| 2026-05-09 08:46 | 53.36458 | -2.27976 | 246 ft | 12 kts | 135° |
| 2026-05-09 08:47 | 53.36377 | -2.27960 | 246 ft | 15 kts | 219° |
| 2026-05-09 08:47 | 53.36289 | -2.28064 | 246 ft | 16 kts | 196° |
| 2026-05-09 08:47 | 53.36187 | -2.28050 | 246 ft | 16 kts | 136° |
| 2026-05-09 08:47 | 53.36117 | -2.27915 | 246 ft | 15 kts | 113° |
| 2026-05-09 08:48 | 53.36089 | -2.27746 | 246 ft | 16 kts | 104° |
| 2026-05-09 08:48 | 53.36031 | -2.27621 | 246 ft | 14 kts | 183° |
| 2026-05-09 08:48 | 53.35936 | -2.27637 | 246 ft | 13 kts | 185° |
| 2026-05-09 08:48 | 53.35848 | -2.27652 | 246 ft | 13 kts | 186° |
| 2026-05-09 08:49 | 53.35773 | -2.27662 | 246 ft | 8 kts | 177° |
| 2026-05-09 08:49 | 53.35721 | -2.27637 | 246 ft | 8 kts | 159° |
| 2026-05-09 08:49 | 53.35664 | -2.27583 | 246 ft | 11 kts | 141° |
| 2026-05-09 08:49 | 53.35601 | -2.27495 | 251 ft | 10 kts | 141° |
| 2026-05-09 08:50 | 53.35579 | -2.27467 | 254 ft | 1 kts | 141° |
| 2026-05-09 08:50 | 53.35573 | -2.27459 | 255 ft | 1 kts | 141° |
| 2026-05-09 08:50 | 53.35573 | -2.27458 | 255 ft | 0 kts | 141° |
| 2026-05-09 08:50 | 53.35567 | -2.27451 | 256 ft | 4 kts | 141° |
| 2026-05-09 08:51 | 53.35516 | -2.27382 | 260 ft | 13 kts | 141° |
| 2026-05-09 08:51 | 53.35427 | -2.27261 | 259 ft | 20 kts | 141° |
| 2026-05-09 08:51 | 53.35310 | -2.27196 | 253 ft | 19 kts | 187° |
| 2026-05-09 08:51 | 53.35168 | -2.27245 | 243 ft | 23 kts | 192° |
| 2026-05-09 08:52 | 53.35019 | -2.27314 | 238 ft | 22 kts | 217° |
| 2026-05-09 08:52 | 53.34887 | -2.27571 | 238 ft | 53 kts | 231° |
| 2026-05-09 08:52 | 53.34505 | -2.28363 | 222 ft | 121 kts | 231° |
| 2026-05-09 08:52 | 53.33861 | -2.29707 | 322 ft | 165 kts | 232° |
| 2026-05-09 08:53 | 53.33137 | -2.31218 | 972 ft | 173 kts | 231° |
| 2026-05-09 08:53 | 53.32359 | -2.32834 | 1624 ft | 190 kts | 234° |
| 2026-05-09 08:53 | 53.31888 | -2.35047 | 1940 ft | 218 kts | 269° |
| 2026-05-09 08:53 | 53.32181 | -2.37648 | 2361 ft | 238 kts | 284° |
| 2026-05-09 08:54 | 53.32586 | -2.40481 | 2843 ft | 258 kts | 277° |
| 2026-05-09 08:54 | 53.32299 | -2.43407 | 3747 ft | 258 kts | 240° |
| 2026-05-09 08:54 | 53.31069 | -2.45543 | 4633 ft | 259 kts | 210° |
| 2026-05-09 08:54 | 53.29370 | -2.46277 | 4965 ft | 257 kts | 176° |
| 2026-05-09 08:55 | 53.27651 | -2.45493 | 5503 ft | 264 kts | 159° |
| 2026-05-09 08:55 | 53.25980 | -2.44191 | 6381 ft | 267 kts | 153° |
| 2026-05-09 08:55 | 53.24347 | -2.42689 | 7232 ft | 270 kts | 152° |
| 2026-05-09 08:55 | 53.22692 | -2.41174 | 8069 ft | 273 kts | 152° |
| 2026-05-09 08:56 | 53.21012 | -2.39658 | 8909 ft | 276 kts | 153° |
| 2026-05-09 08:56 | 53.19309 | -2.38140 | 9739 ft | 279 kts | 153° |
| 2026-05-09 08:56 | 53.17579 | -2.36619 | 10497 ft | 285 kts | 153° |
| 2026-05-09 08:56 | 53.15784 | -2.35050 | 10767 ft | 308 kts | 153° |
| 2026-05-09 08:57 | 53.13813 | -2.33331 | 10964 ft | 332 kts | 153° |
| 2026-05-09 08:57 | 53.11699 | -2.31488 | 11142 ft | 354 kts | 153° |
| 2026-05-09 08:57 | 53.09460 | -2.29537 | 11453 ft | 370 kts | 153° |
| 2026-05-09 08:57 | 53.07158 | -2.27530 | 12065 ft | 376 kts | 153° |
| 2026-05-09 08:58 | 53.04826 | -2.25499 | 12793 ft | 380 kts | 153° |
| 2026-05-09 08:58 | 53.02477 | -2.23458 | 13501 ft | 384 kts | 153° |
| 2026-05-09 08:58 | 53.00097 | -2.21394 | 14152 ft | 388 kts | 154° |
| 2026-05-09 08:58 | 52.97686 | -2.19305 | 14711 ft | 394 kts | 154° |
| 2026-05-09 08:59 | 52.95237 | -2.17186 | 15231 ft | 400 kts | 154° |
| 2026-05-09 08:59 | 52.92794 | -2.15072 | 15852 ft | 403 kts | 154° |
| 2026-05-09 08:59 | 52.90303 | -2.12920 | 16476 ft | 406 kts | 154° |
| 2026-05-09 08:59 | 52.87787 | -2.10748 | 17061 ft | 410 kts | 154° |
| 2026-05-09 09:00 | 52.85245 | -2.08557 | 17624 ft | 414 kts | 154° |
| 2026-05-09 09:00 | 52.82676 | -2.06344 | 18201 ft | 418 kts | 155° |
| 2026-05-09 09:00 | 52.80084 | -2.04116 | 18718 ft | 422 kts | 155° |
| 2026-05-09 09:00 | 52.77472 | -2.01873 | 19267 ft | 424 kts | 155° |
| 2026-05-09 09:01 | 52.74856 | -1.99628 | 19860 ft | 423 kts | 155° |
| 2026-05-09 09:01 | 52.72280 | -1.97421 | 20461 ft | 423 kts | 155° |
| 2026-05-09 09:01 | 52.69666 | -1.95184 | 20980 ft | 425 kts | 155° |
| 2026-05-09 09:01 | 52.67032 | -1.92935 | 21451 ft | 428 kts | 155° |
| 2026-05-09 09:02 | 52.64382 | -1.90675 | 21943 ft | 430 kts | 155° |
| 2026-05-09 09:02 | 52.61719 | -1.88407 | 22443 ft | 432 kts | 155° |
| 2026-05-09 09:02 | 52.59045 | -1.86132 | 22930 ft | 433 kts | 155° |
| 2026-05-09 09:02 | 52.56363 | -1.83854 | 23403 ft | 435 kts | 155° |
| 2026-05-09 09:03 | 52.53665 | -1.81565 | 23835 ft | 437 kts | 155° |
| 2026-05-09 09:03 | 52.50957 | -1.79270 | 24206 ft | 439 kts | 155° |
| 2026-05-09 09:03 | 52.48278 | -1.77004 | 24622 ft | 439 kts | 155° |
| 2026-05-09 09:03 | 52.45563 | -1.74709 | 25025 ft | 440 kts | 155° |
| 2026-05-09 09:04 | 52.42838 | -1.72408 | 25407 ft | 441 kts | 155° |
| 2026-05-09 09:04 | 52.40110 | -1.70110 | 25765 ft | 442 kts | 155° |
| 2026-05-09 09:04 | 52.37386 | -1.67746 | 26115 ft | 444 kts | 151° |
| 2026-05-09 09:04 | 52.34844 | -1.64841 | 26447 ft | 449 kts | 143° |
| 2026-05-09 09:05 | 52.32571 | -1.61305 | 26786 ft | 453 kts | 136° |
| 2026-05-09 09:05 | 52.30412 | -1.57539 | 27112 ft | 454 kts | 136° |
| 2026-05-09 09:05 | 52.28281 | -1.53822 | 27453 ft | 455 kts | 136° |
| 2026-05-09 09:05 | 52.26117 | -1.50072 | 27977 ft | 450 kts | 136° |
| 2026-05-09 09:06 | 52.23979 | -1.46395 | 28645 ft | 444 kts | 137° |
| 2026-05-09 09:06 | 52.21855 | -1.42768 | 29167 ft | 441 kts | 137° |
| 2026-05-09 09:06 | 52.19734 | -1.39162 | 29569 ft | 441 kts | 137° |
| 2026-05-09 09:06 | 52.17609 | -1.35564 | 29975 ft | 440 kts | 137° |
| 2026-05-09 09:07 | 52.15495 | -1.31987 | 30429 ft | 437 kts | 137° |
| 2026-05-09 09:07 | 52.13393 | -1.28433 | 30851 ft | 434 kts | 137° |
| 2026-05-09 09:07 | 52.11297 | -1.24896 | 31212 ft | 433 kts | 137° |
| 2026-05-09 09:07 | 52.09233 | -1.21415 | 31514 ft | 433 kts | 137° |
| 2026-05-09 09:08 | 52.07143 | -1.17896 | 31852 ft | 432 kts | 137° |
| 2026-05-09 09:08 | 52.05057 | -1.14387 | 32224 ft | 430 kts | 137° |
| 2026-05-09 09:08 | 52.02980 | -1.10902 | 32607 ft | 428 kts | 137° |
| 2026-05-09 09:08 | 52.00904 | -1.07481 | 33090 ft | 423 kts | 138° |
| 2026-05-09 09:09 | 51.98807 | -1.04156 | 33436 ft | 421 kts | 140° |
| 2026-05-09 09:09 | 51.96638 | -1.00964 | 33709 ft | 421 kts | 141° |
| 2026-05-09 09:09 | 51.94446 | -0.97824 | 33990 ft | 421 kts | 142° |
| 2026-05-09 09:09 | 51.92269 | -0.94726 | 34095 ft | 424 kts | 142° |
| 2026-05-09 09:10 | 51.90043 | -0.91555 | 34176 ft | 428 kts | 141° |
| 2026-05-09 09:10 | 51.87808 | -0.88357 | 34399 ft | 428 kts | 141° |
| 2026-05-09 09:10 | 51.85581 | -0.85160 | 34669 ft | 428 kts | 141° |
| 2026-05-09 09:10 | 51.83359 | -0.81969 | 34921 ft | 427 kts | 141° |
| 2026-05-09 09:11 | 51.81137 | -0.78778 | 35113 ft | 428 kts | 141° |
| 2026-05-09 09:11 | 51.78910 | -0.75584 | 35357 ft | 427 kts | 141° |
| 2026-05-09 09:11 | 51.76692 | -0.72407 | 35629 ft | 426 kts | 141° |
| 2026-05-09 09:11 | 51.74502 | -0.69274 | 35767 ft | 428 kts | 141° |
| 2026-05-09 09:12 | 51.72266 | -0.66081 | 35902 ft | 430 kts | 141° |
| 2026-05-09 09:12 | 51.70027 | -0.62887 | 36112 ft | 430 kts | 141° |
| 2026-05-09 09:12 | 51.67789 | -0.59700 | 36310 ft | 430 kts | 141° |
| 2026-05-09 09:12 | 51.65554 | -0.56495 | 36477 ft | 432 kts | 139° |
| 2026-05-09 09:13 | 51.63555 | -0.52856 | 36617 ft | 436 kts | 129° |
| 2026-05-09 09:13 | 51.61907 | -0.48744 | 36839 ft | 439 kts | 122° |
| 2026-05-09 09:13 | 51.60613 | -0.44267 | 36999 ft | 444 kts | 113° |
| 2026-05-09 09:13 | 51.59614 | -0.39555 | 37126 ft | 446 kts | 111° |
| 2026-05-09 09:14 | 51.58665 | -0.34854 | 37125 ft | 449 kts | 111° |
| 2026-05-09 09:14 | 51.56752 | -0.25313 | 37125 ft | 446 kts | 111° |
| 2026-05-09 09:15 | 51.54818 | -0.15886 | 37127 ft | 443 kts | 112° |
| 2026-05-09 09:15 | 51.52865 | -0.06542 | 37153 ft | 440 kts | 112° |
| 2026-05-09 09:16 | 51.50908 | 0.02737 | 37109 ft | 439 kts | 112° |
| 2026-05-09 09:16 | 51.47933 | 0.16755 | 37142 ft | 449 kts | 112° |
| 2026-05-09 09:17 | 51.45908 | 0.26258 | 37138 ft | 451 kts | 112° |
| 2026-05-09 09:17 | 51.43866 | 0.35798 | 37130 ft | 453 kts | 112° |
| 2026-05-09 09:18 | 51.41817 | 0.45331 | 37133 ft | 453 kts | 112° |
| 2026-05-09 09:18 | 51.39774 | 0.54786 | 37126 ft | 451 kts | 112° |
| 2026-05-09 09:19 | 51.37715 | 0.64271 | 37128 ft | 451 kts | 112° |
| 2026-05-09 09:19 | 51.35652 | 0.73727 | 37133 ft | 450 kts | 112° |
| 2026-05-09 09:20 | 51.33586 | 0.83159 | 37134 ft | 449 kts | 112° |
| 2026-05-09 09:20 | 51.31518 | 0.92559 | 37148 ft | 447 kts | 112° |
| 2026-05-09 09:21 | 51.29463 | 1.01861 | 37128 ft | 446 kts | 112° |
| 2026-05-09 09:21 | 51.27586 | 1.11315 | 37141 ft | 447 kts | 108° |
| 2026-05-09 09:22 | 51.26084 | 1.20959 | 37137 ft | 448 kts | 107° |
| 2026-05-09 09:22 | 51.24591 | 1.30612 | 37140 ft | 448 kts | 107° |
| 2026-05-09 09:23 | 51.23055 | 1.40172 | 37134 ft | 448 kts | 108° |
| 2026-05-09 09:23 | 51.21479 | 1.49790 | 37126 ft | 448 kts | 108° |
| 2026-05-09 09:24 | 51.19889 | 1.59412 | 37127 ft | 449 kts | 108° |
| 2026-05-09 09:24 | 51.18292 | 1.69043 | 37129 ft | 450 kts | 108° |
| 2026-05-09 09:25 | 51.16683 | 1.78693 | 37110 ft | 451 kts | 108° |
| 2026-05-09 09:25 | 51.15076 | 1.88286 | 37110 ft | 452 kts | 108° |
| 2026-05-09 09:26 | 51.13449 | 1.97948 | 37101 ft | 452 kts | 107° |
| 2026-05-09 09:26 | 51.12538 | 2.07880 | 37115 ft | 456 kts | 97° |
| 2026-05-09 09:27 | 51.12087 | 2.17960 | 37108 ft | 457 kts | 97° |
| 2026-05-09 09:27 | 51.11596 | 2.27976 | 37109 ft | 457 kts | 97° |
| 2026-05-09 09:28 | 51.11046 | 2.38057 | 37098 ft | 457 kts | 97° |
| 2026-05-09 09:28 | 51.10477 | 2.48127 | 37111 ft | 457 kts | 97° |
| 2026-05-09 09:29 | 51.09904 | 2.58198 | 37115 ft | 457 kts | 97° |
| 2026-05-09 09:29 | 51.09093 | 2.68206 | 37103 ft | 454 kts | 107° |
| 2026-05-09 09:30 | 51.07351 | 2.77757 | 37115 ft | 453 kts | 109° |
| 2026-05-09 09:30 | 51.05523 | 2.87333 | 37117 ft | 453 kts | 109° |
| 2026-05-09 09:31 | 51.03734 | 2.96937 | 37130 ft | 453 kts | 108° |
| 2026-05-09 09:32 | 51.01096 | 3.11292 | 37121 ft | 454 kts | 108° |
| 2026-05-09 09:32 | 50.99321 | 3.20908 | 37113 ft | 454 kts | 108° |
| 2026-05-09 09:33 | 50.97534 | 3.30523 | 37102 ft | 454 kts | 108° |
| 2026-05-09 09:33 | 50.95739 | 3.40133 | 37107 ft | 454 kts | 108° |
| 2026-05-09 09:34 | 50.93946 | 3.49683 | 37103 ft | 455 kts | 108° |
| 2026-05-09 09:34 | 50.92136 | 3.59284 | 37112 ft | 455 kts | 108° |
| 2026-05-09 09:36 | 50.84723 | 3.97592 | 37118 ft | 456 kts | 108° |
| 2026-05-09 09:37 | 50.82842 | 4.07183 | 37119 ft | 457 kts | 108° |
| 2026-05-09 09:37 | 50.80950 | 4.16784 | 37122 ft | 457 kts | 108° |
| 2026-05-09 09:38 | 50.79052 | 4.26368 | 37122 ft | 457 kts | 109° |
| 2026-05-09 09:38 | 50.77159 | 4.35882 | 37129 ft | 457 kts | 109° |
| 2026-05-09 09:39 | 50.75246 | 4.45450 | 37124 ft | 457 kts | 109° |
| 2026-05-09 09:39 | 50.73327 | 4.55007 | 37128 ft | 456 kts | 109° |
| 2026-05-09 09:40 | 50.71415 | 4.64564 | 37123 ft | 456 kts | 108° |
| 2026-05-09 09:40 | 50.69578 | 4.74073 | 37113 ft | 456 kts | 108° |
| 2026-05-09 09:41 | 50.67722 | 4.83644 | 37119 ft | 456 kts | 108° |
| 2026-05-09 09:41 | 50.65777 | 4.93153 | 37109 ft | 456 kts | 114° |
| 2026-05-09 09:42 | 50.63119 | 5.02200 | 37114 ft | 455 kts | 117° |
| 2026-05-09 09:42 | 50.60323 | 5.11148 | 37117 ft | 456 kts | 117° |
| 2026-05-09 09:43 | 50.57573 | 5.20075 | 37111 ft | 457 kts | 116° |
| 2026-05-09 09:43 | 50.54826 | 5.29100 | 37113 ft | 458 kts | 116° |
| 2026-05-09 09:44 | 50.52074 | 5.38154 | 37118 ft | 460 kts | 116° |
| 2026-05-09 09:44 | 50.49306 | 5.47226 | 37112 ft | 461 kts | 117° |
| 2026-05-09 09:45 | 50.46542 | 5.56248 | 37109 ft | 462 kts | 116° |
| 2026-05-09 09:45 | 50.43748 | 5.65330 | 37100 ft | 463 kts | 116° |
| 2026-05-09 09:46 | 50.40941 | 5.74420 | 37108 ft | 463 kts | 116° |
| 2026-05-09 09:46 | 50.38127 | 5.83499 | 37107 ft | 463 kts | 116° |
| 2026-05-09 09:47 | 50.35304 | 5.92575 | 37101 ft | 464 kts | 116° |
| 2026-05-09 09:47 | 50.32491 | 6.01584 | 37088 ft | 463 kts | 116° |
| 2026-05-09 09:48 | 50.29654 | 6.10637 | 37094 ft | 463 kts | 116° |
| 2026-05-09 09:48 | 50.26812 | 6.19673 | 37094 ft | 463 kts | 116° |
| 2026-05-09 09:49 | 50.23964 | 6.28699 | 37085 ft | 463 kts | 116° |
| 2026-05-09 09:49 | 50.21130 | 6.37653 | 37084 ft | 463 kts | 116° |
| 2026-05-09 09:50 | 50.18406 | 6.46751 | 37075 ft | 463 kts | 108° |
| 2026-05-09 09:50 | 50.16760 | 6.56449 | 37099 ft | 463 kts | 103° |
| 2026-05-09 09:51 | 50.15234 | 6.66213 | 37110 ft | 464 kts | 103° |
| 2026-05-09 09:51 | 50.13666 | 6.75969 | 37106 ft | 465 kts | 104° |
| 2026-05-09 09:52 | 50.12063 | 6.85691 | 37129 ft | 468 kts | 104° |
| 2026-05-09 09:52 | 50.10422 | 6.95526 | 37121 ft | 470 kts | 104° |
| 2026-05-09 09:53 | 50.08767 | 7.05379 | 37125 ft | 470 kts | 104° |
| 2026-05-09 09:53 | 50.07110 | 7.15206 | 37125 ft | 469 kts | 104° |
| 2026-05-09 09:54 | 50.05457 | 7.24950 | 37128 ft | 469 kts | 104° |
| 2026-05-09 09:54 | 50.03786 | 7.34749 | 37132 ft | 468 kts | 104° |
| 2026-05-09 09:55 | 50.02108 | 7.44535 | 37128 ft | 468 kts | 104° |
| 2026-05-09 09:55 | 50.00424 | 7.54303 | 37126 ft | 468 kts | 104° |
| 2026-05-09 09:56 | 49.98729 | 7.64072 | 37122 ft | 468 kts | 104° |
| 2026-05-09 09:56 | 49.97040 | 7.73758 | 37125 ft | 468 kts | 104° |
| 2026-05-09 09:57 | 49.95329 | 7.83520 | 37127 ft | 468 kts | 104° |
| 2026-05-09 09:57 | 49.93610 | 7.93272 | 37136 ft | 469 kts | 104° |
| 2026-05-09 09:58 | 49.91580 | 8.02905 | 37239 ft | 473 kts | 116° |
| 2026-05-09 09:58 | 49.89930 | 8.07310 | 37447 ft | 473 kts | 122° |
| 2026-05-09 09:58 | 49.88178 | 8.11615 | 37702 ft | 471 kts | 122° |
| 2026-05-09 09:58 | 49.86415 | 8.15895 | 37930 ft | 471 kts | 122° |
| 2026-05-09 09:59 | 49.84678 | 8.20121 | 38104 ft | 472 kts | 122° |
| 2026-05-09 09:59 | 49.82922 | 8.24425 | 38210 ft | 473 kts | 122° |
| 2026-05-09 09:59 | 49.81172 | 8.28744 | 38370 ft | 474 kts | 122° |
| 2026-05-09 09:59 | 49.79425 | 8.33074 | 38568 ft | 474 kts | 122° |
| 2026-05-09 10:00 | 49.77684 | 8.37399 | 38727 ft | 474 kts | 122° |
| 2026-05-09 10:00 | 49.75940 | 8.41729 | 38856 ft | 474 kts | 122° |
| 2026-05-09 10:00 | 49.74197 | 8.46053 | 38979 ft | 474 kts | 122° |
| 2026-05-09 10:00 | 49.72453 | 8.50371 | 39105 ft | 474 kts | 122° |
| 2026-05-09 10:01 | 49.70726 | 8.54640 | 39120 ft | 476 kts | 122° |
| 2026-05-09 10:01 | 49.67210 | 8.63303 | 39128 ft | 475 kts | 122° |
| 2026-05-09 10:02 | 49.63701 | 8.71918 | 39112 ft | 473 kts | 122° |
| 2026-05-09 10:02 | 49.60201 | 8.80485 | 39124 ft | 471 kts | 122° |
| 2026-05-09 10:03 | 49.56705 | 8.89011 | 39123 ft | 470 kts | 122° |
| 2026-05-09 10:03 | 49.53232 | 8.97455 | 39124 ft | 469 kts | 123° |
| 2026-05-09 10:04 | 49.49733 | 9.05937 | 39113 ft | 470 kts | 123° |
| 2026-05-09 10:04 | 49.46222 | 9.14419 | 39116 ft | 471 kts | 123° |
| 2026-05-09 10:05 | 49.42697 | 9.22910 | 39121 ft | 472 kts | 123° |
| 2026-05-09 10:05 | 49.39156 | 9.31409 | 39116 ft | 473 kts | 123° |
| 2026-05-09 10:06 | 49.35602 | 9.39916 | 39105 ft | 474 kts | 123° |
| 2026-05-09 10:06 | 49.32053 | 9.48381 | 39114 ft | 476 kts | 123° |
| 2026-05-09 10:07 | 49.28461 | 9.56922 | 39116 ft | 477 kts | 123° |
| 2026-05-09 10:07 | 49.24857 | 9.65463 | 39116 ft | 478 kts | 123° |
| 2026-05-09 10:08 | 49.21040 | 9.73806 | 39135 ft | 479 kts | 129° |
| 2026-05-09 10:08 | 49.16810 | 9.81588 | 39130 ft | 479 kts | 131° |
| 2026-05-09 10:09 | 49.12505 | 9.89349 | 39131 ft | 480 kts | 131° |
| 2026-05-09 10:09 | 49.08228 | 9.97172 | 39120 ft | 480 kts | 130° |
| 2026-05-09 10:10 | 49.03977 | 10.05015 | 39120 ft | 480 kts | 130° |
| 2026-05-09 10:10 | 48.99728 | 10.12852 | 39132 ft | 479 kts | 130° |
| 2026-05-09 10:11 | 48.95506 | 10.20615 | 39111 ft | 479 kts | 131° |
| 2026-05-09 10:11 | 48.91249 | 10.28415 | 39137 ft | 479 kts | 131° |
| 2026-05-09 10:12 | 48.86990 | 10.36195 | 39133 ft | 479 kts | 131° |
| 2026-05-09 10:12 | 48.82728 | 10.43955 | 39128 ft | 478 kts | 131° |
| 2026-05-09 10:13 | 48.78490 | 10.51650 | 39144 ft | 478 kts | 131° |
| 2026-05-09 10:13 | 48.74224 | 10.59373 | 39129 ft | 478 kts | 131° |
| 2026-05-09 10:14 | 48.69954 | 10.67081 | 39124 ft | 478 kts | 131° |
| 2026-05-09 10:14 | 48.65679 | 10.74776 | 39126 ft | 478 kts | 131° |
| 2026-05-09 10:15 | 48.61402 | 10.82452 | 39123 ft | 477 kts | 131° |
| 2026-05-09 10:15 | 48.57148 | 10.90065 | 39125 ft | 477 kts | 131° |
| 2026-05-09 10:16 | 48.52861 | 10.97716 | 39112 ft | 477 kts | 132° |
| 2026-05-09 10:16 | 48.48571 | 11.05349 | 39126 ft | 477 kts | 132° |
| 2026-05-09 10:17 | 48.44274 | 11.12973 | 39134 ft | 477 kts | 132° |
| 2026-05-09 10:17 | 48.39975 | 11.20578 | 39122 ft | 477 kts | 132° |
| 2026-05-09 10:18 | 48.35701 | 11.28119 | 39113 ft | 477 kts | 132° |
| 2026-05-09 10:18 | 48.31397 | 11.35689 | 39111 ft | 476 kts | 133° |
| 2026-05-09 10:19 | 48.27089 | 11.43247 | 39118 ft | 476 kts | 133° |
| 2026-05-09 10:19 | 48.22776 | 11.50791 | 39115 ft | 476 kts | 133° |
| 2026-05-09 10:20 | 48.18463 | 11.58314 | 39121 ft | 475 kts | 133° |
| 2026-05-09 10:20 | 48.14149 | 11.65818 | 39114 ft | 475 kts | 133° |
| 2026-05-09 10:21 | 48.09864 | 11.73252 | 39122 ft | 475 kts | 133° |
| 2026-05-09 10:21 | 48.05542 | 11.80726 | 39106 ft | 475 kts | 133° |
| 2026-05-09 10:22 | 48.01218 | 11.88185 | 39097 ft | 475 kts | 133° |
| 2026-05-09 10:22 | 47.96892 | 11.95626 | 39112 ft | 475 kts | 133° |
| 2026-05-09 10:23 | 47.92557 | 12.03062 | 39113 ft | 475 kts | 133° |
| 2026-05-09 10:23 | 47.88244 | 12.10440 | 39117 ft | 476 kts | 133° |
| 2026-05-09 10:24 | 47.83888 | 12.17870 | 39122 ft | 476 kts | 133° |
| 2026-05-09 10:24 | 47.79524 | 12.25295 | 39126 ft | 477 kts | 134° |
| 2026-05-09 10:25 | 47.75147 | 12.32720 | 39116 ft | 478 kts | 134° |
| 2026-05-09 10:25 | 47.70755 | 12.40151 | 39119 ft | 479 kts | 134° |
| 2026-05-09 10:26 | 47.66384 | 12.47530 | 39120 ft | 479 kts | 134° |
| 2026-05-09 10:26 | 47.61953 | 12.54926 | 39121 ft | 479 kts | 136° |
| 2026-05-09 10:27 | 47.57202 | 12.61837 | 39118 ft | 478 kts | 140° |
| 2026-05-09 10:27 | 47.52335 | 12.68554 | 39105 ft | 478 kts | 140° |
| 2026-05-09 10:28 | 47.47519 | 12.75239 | 39104 ft | 479 kts | 139° |
| 2026-05-09 10:28 | 47.42685 | 12.82011 | 39111 ft | 479 kts | 139° |
| 2026-05-09 10:29 | 47.37851 | 12.88796 | 39120 ft | 479 kts | 139° |
| 2026-05-09 10:29 | 47.33046 | 12.95529 | 39124 ft | 479 kts | 139° |
| 2026-05-09 10:30 | 47.28212 | 13.02277 | 39149 ft | 478 kts | 140° |
| 2026-05-09 10:30 | 47.23378 | 13.09005 | 39110 ft | 478 kts | 140° |
| 2026-05-09 10:31 | 47.18539 | 13.15722 | 39116 ft | 479 kts | 140° |
| 2026-05-09 10:31 | 47.13687 | 13.22442 | 39112 ft | 479 kts | 140° |
| 2026-05-09 10:32 | 47.08868 | 13.29102 | 39111 ft | 480 kts | 140° |
| 2026-05-09 10:32 | 47.03999 | 13.35807 | 39109 ft | 481 kts | 140° |
| 2026-05-09 10:33 | 46.99122 | 13.42507 | 39100 ft | 480 kts | 140° |
| 2026-05-09 10:33 | 46.94253 | 13.49179 | 39116 ft | 477 kts | 140° |
| 2026-05-09 10:34 | 46.90223 | 13.54688 | 39111 ft | 477 kts | 140° |
| 2026-05-09 10:34 | 46.82130 | 13.65715 | 39096 ft | 480 kts | 140° |
| 2026-05-09 10:35 | 46.78066 | 13.71234 | 39094 ft | 481 kts | 140° |
| 2026-05-09 10:35 | 46.73167 | 13.77873 | 39097 ft | 480 kts | 140° |
| 2026-05-09 10:36 | 46.68262 | 13.84502 | 39103 ft | 481 kts | 140° |
| 2026-05-09 10:36 | 46.63336 | 13.91141 | 39093 ft | 484 kts | 141° |
| 2026-05-09 10:37 | 46.58384 | 13.97799 | 39086 ft | 485 kts | 141° |
| 2026-05-09 10:37 | 46.53459 | 14.04404 | 39085 ft | 485 kts | 141° |
| 2026-05-09 10:38 | 46.48496 | 14.11042 | 39070 ft | 485 kts | 141° |
| 2026-05-09 10:38 | 46.43536 | 14.17660 | 39085 ft | 484 kts | 141° |
| 2026-05-09 10:39 | 46.38576 | 14.24256 | 39096 ft | 484 kts | 141° |
| 2026-05-09 10:39 | 46.33656 | 14.30787 | 39094 ft | 483 kts | 141° |
| 2026-05-09 10:40 | 46.28702 | 14.37346 | 39104 ft | 482 kts | 141° |
| 2026-05-09 10:40 | 46.23758 | 14.43876 | 39093 ft | 481 kts | 141° |
| 2026-05-09 10:41 | 46.18817 | 14.50383 | 39099 ft | 480 kts | 141° |
| 2026-05-09 10:41 | 46.13917 | 14.56820 | 39101 ft | 480 kts | 141° |
| 2026-05-09 10:42 | 46.08982 | 14.63287 | 39099 ft | 479 kts | 141° |
| 2026-05-09 10:42 | 46.04045 | 14.69740 | 39090 ft | 479 kts | 141° |
| 2026-05-09 10:43 | 45.99102 | 14.76184 | 39069 ft | 480 kts | 141° |
| 2026-05-09 10:43 | 45.94154 | 14.82619 | 39087 ft | 480 kts | 141° |
| 2026-05-09 10:44 | 45.89227 | 14.89009 | 39093 ft | 481 kts | 141° |
| 2026-05-09 10:44 | 45.84253 | 14.95446 | 39093 ft | 482 kts | 141° |
| 2026-05-09 10:46 | 45.71755 | 15.11549 | 39092 ft | 485 kts | 141° |
| 2026-05-09 10:46 | 45.66762 | 15.17956 | 39085 ft | 486 kts | 142° |
| 2026-05-09 10:47 | 45.61725 | 15.24404 | 39086 ft | 486 kts | 142° |
| 2026-05-09 10:47 | 45.56734 | 15.30909 | 39081 ft | 487 kts | 136° |
| 2026-05-09 10:48 | 45.52287 | 15.38226 | 39066 ft | 488 kts | 133° |
| 2026-05-09 10:48 | 45.47973 | 15.45695 | 39078 ft | 487 kts | 133° |
| 2026-05-09 10:49 | 45.43664 | 15.53051 | 39090 ft | 487 kts | 133° |
| 2026-05-09 10:49 | 45.39289 | 15.60399 | 39077 ft | 486 kts | 133° |
| 2026-05-09 10:50 | 45.34904 | 15.67708 | 39082 ft | 485 kts | 133° |
| 2026-05-09 10:50 | 45.30519 | 15.74998 | 39090 ft | 485 kts | 134° |
| 2026-05-09 10:51 | 45.26131 | 15.82280 | 39063 ft | 485 kts | 134° |
| 2026-05-09 10:51 | 45.21770 | 15.89502 | 39090 ft | 485 kts | 134° |
| 2026-05-09 10:52 | 45.17376 | 15.96759 | 39084 ft | 485 kts | 134° |
| 2026-05-09 10:52 | 45.12973 | 16.04012 | 39089 ft | 486 kts | 134° |
| 2026-05-09 10:53 | 45.08557 | 16.11266 | 39091 ft | 487 kts | 134° |
| 2026-05-09 10:53 | 45.04160 | 16.18472 | 39076 ft | 488 kts | 134° |
| 2026-05-09 10:54 | 44.99724 | 16.25722 | 39064 ft | 488 kts | 134° |
| 2026-05-09 10:54 | 44.95282 | 16.32965 | 39077 ft | 488 kts | 134° |
| 2026-05-09 10:55 | 44.90834 | 16.40198 | 39084 ft | 488 kts | 134° |
| 2026-05-09 10:55 | 44.86412 | 16.47372 | 39085 ft | 488 kts | 134° |
| 2026-05-09 10:56 | 44.81955 | 16.54582 | 39081 ft | 488 kts | 134° |
| 2026-05-09 10:56 | 44.77491 | 16.61787 | 39080 ft | 488 kts | 134° |
| 2026-05-09 10:57 | 44.73031 | 16.68966 | 39064 ft | 487 kts | 134° |
| 2026-05-09 10:57 | 44.68571 | 16.76128 | 39086 ft | 487 kts | 134° |
| 2026-05-09 10:58 | 44.64131 | 16.83240 | 39072 ft | 487 kts | 134° |
| 2026-05-09 10:58 | 44.59658 | 16.90389 | 39088 ft | 487 kts | 134° |
| 2026-05-09 10:59 | 44.55321 | 16.97718 | 39098 ft | 489 kts | 131° |
| 2026-05-09 10:59 | 44.51140 | 17.05229 | 39103 ft | 489 kts | 130° |
| 2026-05-09 11:00 | 44.46981 | 17.12701 | 39078 ft | 489 kts | 131° |
| 2026-05-09 11:00 | 44.42773 | 17.20172 | 39112 ft | 489 kts | 131° |
| 2026-05-09 11:01 | 44.38544 | 17.27622 | 39102 ft | 489 kts | 131° |
| 2026-05-09 11:01 | 44.34304 | 17.35064 | 39121 ft | 490 kts | 131° |
| 2026-05-09 11:02 | 44.30074 | 17.42473 | 39111 ft | 493 kts | 131° |
| 2026-05-09 11:02 | 44.25795 | 17.49949 | 39113 ft | 493 kts | 131° |
| 2026-05-09 11:03 | 44.21518 | 17.57407 | 39115 ft | 492 kts | 131° |
| 2026-05-09 11:03 | 44.17244 | 17.64838 | 39112 ft | 490 kts | 131° |
| 2026-05-09 11:04 | 44.13005 | 17.72189 | 39113 ft | 490 kts | 131° |
| 2026-05-09 11:04 | 44.08738 | 17.79569 | 39112 ft | 489 kts | 131° |
| 2026-05-09 11:05 | 44.04474 | 17.86926 | 39116 ft | 488 kts | 131° |
| 2026-05-09 11:05 | 44.00209 | 17.94266 | 39123 ft | 488 kts | 131° |
| 2026-05-09 11:06 | 43.95943 | 18.01589 | 39126 ft | 487 kts | 131° |
| 2026-05-09 11:06 | 43.91705 | 18.08845 | 39099 ft | 487 kts | 131° |
| 2026-05-09 11:07 | 43.87432 | 18.16143 | 39112 ft | 488 kts | 131° |
| 2026-05-09 11:07 | 43.83148 | 18.23441 | 39115 ft | 488 kts | 131° |
| 2026-05-09 11:08 | 43.78850 | 18.30744 | 39102 ft | 490 kts | 131° |
| 2026-05-09 11:08 | 43.74565 | 18.38007 | 39103 ft | 490 kts | 132° |
| 2026-05-09 11:09 | 43.70242 | 18.45316 | 39106 ft | 492 kts | 132° |
| 2026-05-09 11:09 | 43.65906 | 18.52629 | 39102 ft | 492 kts | 132° |
| 2026-05-09 11:10 | 43.61560 | 18.59942 | 39108 ft | 492 kts | 132° |
| 2026-05-09 11:10 | 43.57240 | 18.67192 | 39121 ft | 493 kts | 132° |
| 2026-05-09 11:11 | 43.52878 | 18.74493 | 39109 ft | 493 kts | 132° |
| 2026-05-09 11:11 | 43.48515 | 18.81778 | 39108 ft | 493 kts | 132° |
| 2026-05-09 11:12 | 43.44155 | 18.89041 | 39114 ft | 492 kts | 132° |
| 2026-05-09 11:12 | 43.39823 | 18.96237 | 39110 ft | 491 kts | 132° |
| 2026-05-09 11:13 | 43.35462 | 19.03464 | 39102 ft | 491 kts | 132° |
| 2026-05-09 11:13 | 43.31100 | 19.10677 | 39108 ft | 491 kts | 132° |
| 2026-05-09 11:14 | 43.26740 | 19.17867 | 39109 ft | 490 kts | 132° |
| 2026-05-09 11:14 | 43.22385 | 19.25032 | 39105 ft | 488 kts | 132° |
| 2026-05-09 11:15 | 43.18062 | 19.32125 | 39104 ft | 487 kts | 132° |
| 2026-05-09 11:15 | 43.13714 | 19.39243 | 39110 ft | 487 kts | 132° |
| 2026-05-09 11:16 | 43.09358 | 19.46356 | 39112 ft | 488 kts | 132° |
| 2026-05-09 11:16 | 43.04990 | 19.53472 | 39100 ft | 488 kts | 132° |
| 2026-05-09 11:17 | 43.00623 | 19.60571 | 39089 ft | 487 kts | 132° |
| 2026-05-09 11:17 | 42.96292 | 19.67593 | 39089 ft | 486 kts | 132° |
| 2026-05-09 11:18 | 42.91932 | 19.74646 | 39097 ft | 486 kts | 132° |
| 2026-05-09 11:18 | 42.87573 | 19.81679 | 39099 ft | 485 kts | 132° |
| 2026-05-09 11:19 | 42.83216 | 19.88694 | 39094 ft | 485 kts | 132° |
| 2026-05-09 11:19 | 42.78876 | 19.95665 | 39101 ft | 486 kts | 132° |
| 2026-05-09 11:20 | 42.74491 | 20.02694 | 39091 ft | 487 kts | 132° |
| 2026-05-09 11:20 | 42.70159 | 20.09793 | 39094 ft | 488 kts | 131° |
| 2026-05-09 11:21 | 42.65854 | 20.16942 | 39098 ft | 489 kts | 131° |
| 2026-05-09 11:21 | 42.61535 | 20.24084 | 39090 ft | 490 kts | 131° |
| 2026-05-09 11:22 | 42.57222 | 20.31176 | 39083 ft | 492 kts | 131° |
| 2026-05-09 11:22 | 42.52862 | 20.38321 | 39094 ft | 492 kts | 131° |
| 2026-05-09 11:23 | 42.48498 | 20.45456 | 39093 ft | 492 kts | 131° |
| 2026-05-09 11:23 | 42.44132 | 20.52578 | 39090 ft | 491 kts | 131° |
| 2026-05-09 11:24 | 42.39796 | 20.59634 | 39090 ft | 490 kts | 131° |
| 2026-05-09 11:24 | 42.35434 | 20.66714 | 39099 ft | 489 kts | 131° |
| 2026-05-09 11:25 | 42.31073 | 20.73778 | 39081 ft | 490 kts | 131° |
| 2026-05-09 11:25 | 42.26700 | 20.80843 | 39086 ft | 490 kts | 131° |
| 2026-05-09 11:26 | 42.22360 | 20.87840 | 39084 ft | 489 kts | 131° |
| 2026-05-09 11:26 | 42.17992 | 20.94865 | 39084 ft | 488 kts | 131° |
| 2026-05-09 11:27 | 42.13632 | 21.01863 | 39078 ft | 487 kts | 132° |
| 2026-05-09 11:27 | 42.09119 | 21.08649 | 39078 ft | 485 kts | 138° |
| 2026-05-09 11:28 | 42.04194 | 21.14857 | 39074 ft | 485 kts | 140° |
| 2026-05-09 11:28 | 41.99245 | 21.20950 | 39060 ft | 485 kts | 140° |
| 2026-05-09 11:29 | 41.94307 | 21.27115 | 39075 ft | 485 kts | 139° |
| 2026-05-09 11:29 | 41.89388 | 21.33309 | 39057 ft | 485 kts | 139° |
| 2026-05-09 11:30 | 41.84508 | 21.39455 | 39069 ft | 485 kts | 139° |
| 2026-05-09 11:30 | 41.79583 | 21.45643 | 39067 ft | 486 kts | 139° |
| 2026-05-09 11:31 | 41.74648 | 21.51825 | 39056 ft | 486 kts | 139° |
| 2026-05-09 11:31 | 41.69701 | 21.58007 | 39067 ft | 486 kts | 139° |
| 2026-05-09 11:32 | 41.64752 | 21.64178 | 39077 ft | 487 kts | 139° |
| 2026-05-09 11:32 | 41.59823 | 21.70311 | 39069 ft | 488 kts | 139° |
| 2026-05-09 11:33 | 41.54843 | 21.76494 | 39060 ft | 489 kts | 139° |
| 2026-05-09 11:33 | 41.47352 | 21.85768 | 39059 ft | 490 kts | 139° |
| 2026-05-09 11:34 | 41.42392 | 21.91893 | 39075 ft | 490 kts | 140° |
| 2026-05-09 11:34 | 41.37384 | 21.98064 | 39069 ft | 491 kts | 140° |
| 2026-05-09 11:35 | 41.32355 | 22.04246 | 39062 ft | 494 kts | 140° |
| 2026-05-09 11:35 | 41.27301 | 22.10446 | 39045 ft | 494 kts | 140° |
| 2026-05-09 11:36 | 41.22245 | 22.16637 | 39053 ft | 494 kts | 140° |
| 2026-05-09 11:36 | 41.17230 | 22.22764 | 39052 ft | 493 kts | 140° |
| 2026-05-09 11:37 | 41.12022 | 22.28688 | 38825 ft | 496 kts | 143° |
| 2026-05-09 11:37 | 41.09324 | 22.31568 | 38235 ft | 497 kts | 144° |
| 2026-05-09 11:37 | 41.06628 | 22.34416 | 37657 ft | 494 kts | 144° |
| 2026-05-09 11:38 | 41.03942 | 22.37256 | 37074 ft | 493 kts | 143° |
| 2026-05-09 11:38 | 41.01274 | 22.40089 | 36483 ft | 491 kts | 144° |
| 2026-05-09 11:38 | 40.98656 | 22.42883 | 35895 ft | 489 kts | 143° |
| 2026-05-09 11:38 | 40.96006 | 22.45718 | 35244 ft | 490 kts | 143° |
| 2026-05-09 11:39 | 40.93353 | 22.48558 | 34599 ft | 491 kts | 143° |
| 2026-05-09 11:39 | 40.90697 | 22.51401 | 33912 ft | 492 kts | 143° |
| 2026-05-09 11:39 | 40.88033 | 22.54250 | 33122 ft | 493 kts | 142° |
| 2026-05-09 11:40 | 40.82699 | 22.59945 | 31660 ft | 493 kts | 142° |
| 2026-05-09 11:40 | 40.80031 | 22.62788 | 30913 ft | 493 kts | 142° |
| 2026-05-09 11:40 | 40.77398 | 22.65590 | 30167 ft | 493 kts | 142° |
| 2026-05-09 11:40 | 40.74728 | 22.68429 | 29259 ft | 493 kts | 142° |
| 2026-05-09 11:41 | 40.72058 | 22.71264 | 28357 ft | 492 kts | 142° |
| 2026-05-09 11:41 | 40.69395 | 22.74090 | 27477 ft | 492 kts | 142° |
| 2026-05-09 11:41 | 40.66724 | 22.76920 | 26559 ft | 493 kts | 142° |
| 2026-05-09 11:41 | 40.64070 | 22.79731 | 25947 ft | 487 kts | 142° |
| 2026-05-09 11:42 | 40.61440 | 22.82512 | 25276 ft | 482 kts | 143° |
| 2026-05-09 11:42 | 40.58838 | 22.85261 | 24636 ft | 478 kts | 143° |
| 2026-05-09 11:42 | 40.56289 | 22.87952 | 23998 ft | 474 kts | 143° |
| 2026-05-09 11:42 | 40.53724 | 22.90657 | 23286 ft | 471 kts | 143° |
| 2026-05-09 11:43 | 40.51179 | 22.93338 | 22574 ft | 467 kts | 143° |
| 2026-05-09 11:43 | 40.48654 | 22.95995 | 21910 ft | 462 kts | 143° |
| 2026-05-09 11:43 | 40.46098 | 22.98494 | 21252 ft | 455 kts | 150° |
| 2026-05-09 11:43 | 40.43335 | 23.00432 | 20653 ft | 446 kts | 160° |
| 2026-05-09 11:44 | 40.40455 | 23.01863 | 20047 ft | 440 kts | 162° |
| 2026-05-09 11:44 | 40.37590 | 23.03235 | 19432 ft | 436 kts | 163° |
| 2026-05-09 11:44 | 40.34787 | 23.04584 | 18812 ft | 433 kts | 162° |
| 2026-05-09 11:44 | 40.31974 | 23.05956 | 18151 ft | 430 kts | 162° |
| 2026-05-09 11:45 | 40.29183 | 23.07331 | 17450 ft | 427 kts | 162° |
| 2026-05-09 11:45 | 40.26420 | 23.08701 | 16801 ft | 422 kts | 162° |
| 2026-05-09 11:45 | 40.23691 | 23.10057 | 16180 ft | 417 kts | 162° |
| 2026-05-09 11:45 | 40.20991 | 23.11400 | 15561 ft | 413 kts | 162° |
| 2026-05-09 11:46 | 40.18321 | 23.12724 | 14968 ft | 408 kts | 162° |
| 2026-05-09 11:46 | 40.15682 | 23.14032 | 14378 ft | 404 kts | 162° |
| 2026-05-09 11:46 | 40.13064 | 23.15328 | 13781 ft | 401 kts | 162° |
| 2026-05-09 11:46 | 40.10503 | 23.16594 | 13158 ft | 397 kts | 162° |
| 2026-05-09 11:47 | 40.07944 | 23.17858 | 12639 ft | 390 kts | 162° |
| 2026-05-09 11:47 | 40.05422 | 23.19103 | 12045 ft | 386 kts | 162° |
| 2026-05-09 11:47 | 40.02918 | 23.20336 | 11463 ft | 383 kts | 162° |
| 2026-05-09 11:47 | 40.00453 | 23.21551 | 11167 ft | 372 kts | 162° |
| 2026-05-09 11:48 | 39.98084 | 23.22720 | 10999 ft | 358 kts | 162° |
| 2026-05-09 11:48 | 39.95793 | 23.23848 | 10843 ft | 346 kts | 162° |
| 2026-05-09 11:48 | 39.93580 | 23.24936 | 10696 ft | 334 kts | 162° |
| 2026-05-09 11:48 | 39.91468 | 23.25974 | 10559 ft | 324 kts | 162° |
| 2026-05-09 11:49 | 39.89391 | 23.26990 | 10419 ft | 314 kts | 162° |
| 2026-05-09 11:49 | 39.87374 | 23.27971 | 10278 ft | 305 kts | 162° |
| 2026-05-09 11:49 | 39.85412 | 23.28924 | 10151 ft | 297 kts | 162° |
| 2026-05-09 11:49 | 39.83488 | 23.29858 | 10003 ft | 295 kts | 162° |
| 2026-05-09 11:50 | 39.81552 | 23.30796 | 9690 ft | 298 kts | 162° |
| 2026-05-09 11:50 | 39.79618 | 23.31735 | 9386 ft | 295 kts | 162° |
| 2026-05-09 11:50 | 39.77698 | 23.32666 | 9080 ft | 293 kts | 162° |
| 2026-05-09 11:50 | 39.75795 | 23.33590 | 8782 ft | 291 kts | 162° |
| 2026-05-09 11:51 | 39.73926 | 23.34496 | 8486 ft | 289 kts | 162° |
| 2026-05-09 11:51 | 39.72049 | 23.35409 | 8205 ft | 287 kts | 162° |
| 2026-05-09 11:51 | 39.70183 | 23.36321 | 7917 ft | 286 kts | 162° |
| 2026-05-09 11:51 | 39.68326 | 23.37230 | 7621 ft | 284 kts | 162° |
| 2026-05-09 11:52 | 39.66479 | 23.38133 | 7337 ft | 283 kts | 162° |
| 2026-05-09 11:52 | 39.64639 | 23.39032 | 7049 ft | 282 kts | 162° |
| 2026-05-09 11:52 | 39.62807 | 23.39927 | 6759 ft | 281 kts | 162° |
| 2026-05-09 11:52 | 39.60981 | 23.40818 | 6478 ft | 280 kts | 162° |
| 2026-05-09 11:53 | 39.59182 | 23.41696 | 6176 ft | 280 kts | 162° |
| 2026-05-09 11:53 | 39.57367 | 23.42581 | 5881 ft | 279 kts | 162° |
| 2026-05-09 11:53 | 39.55555 | 23.43463 | 5594 ft | 277 kts | 162° |
| 2026-05-09 11:53 | 39.53755 | 23.44340 | 5295 ft | 276 kts | 162° |
| 2026-05-09 11:54 | 39.51964 | 23.45212 | 5016 ft | 274 kts | 162° |
| 2026-05-09 11:54 | 39.50185 | 23.46078 | 4742 ft | 273 kts | 162° |
| 2026-05-09 11:54 | 39.48415 | 23.46938 | 4452 ft | 271 kts | 162° |
| 2026-05-09 11:54 | 39.46652 | 23.47795 | 4165 ft | 270 kts | 161° |
| 2026-05-09 11:55 | 39.44926 | 23.48633 | 3972 ft | 265 kts | 161° |
| 2026-05-09 11:56 | 39.36175 | 23.51576 | 3291 ft | 251 kts | 172° |
| 2026-05-09 11:56 | 39.34475 | 23.51955 | 3025 ft | 244 kts | 172° |
| 2026-05-09 11:56 | 39.32826 | 23.52336 | 2772 ft | 237 kts | 171° |
| 2026-05-09 11:57 | 39.31231 | 23.52710 | 2529 ft | 229 kts | 170° |
| 2026-05-09 11:57 | 39.29713 | 23.53071 | 2299 ft | 219 kts | 170° |
| 2026-05-09 11:57 | 39.28263 | 23.53417 | 2046 ft | 203 kts | 169° |
| 2026-05-09 11:57 | 39.26921 | 23.53726 | 1790 ft | 188 kts | 172° |
| 2026-05-09 11:58 | 39.25681 | 23.53536 | 1576 ft | 173 kts | 197° |
| 2026-05-09 11:58 | 39.24562 | 23.53093 | 1360 ft | 164 kts | 196° |
| 2026-05-09 11:58 | 39.23529 | 23.52695 | 1184 ft | 147 kts | 196° |
| 2026-05-09 11:58 | 39.22553 | 23.52309 | 958 ft | 144 kts | 195° |
| 2026-05-09 11:59 | 39.21577 | 23.52009 | 731 ft | 142 kts | 194° |
| 2026-05-09 11:59 | 39.20660 | 23.51650 | 521 ft | 137 kts | 198° |
| 2026-05-09 11:59 | 39.19785 | 23.51277 | 360 ft | 129 kts | 198° |
| 2026-05-09 11:59 | 39.18947 | 23.50913 | 197 ft | 126 kts | 198° |
| 2026-05-09 12:00 | 39.18118 | 23.50549 | 52 ft | 121 kts | 199° |
| 2026-05-09 12:00 | 39.17490 | 23.50269 | 38 ft | 62 kts | 199° |
| 2026-05-09 12:00 | 39.17213 | 23.50145 | 23 ft | 29 kts | 199° |
| 2026-05-09 12:00 | 39.17080 | 23.50091 | 17 ft | 15 kts | 182° |
| 2026-05-09 12:01 | 39.17019 | 23.50072 | 10 ft | 6 kts | 273° |
| 2026-05-09 12:01 | 39.17042 | 23.50064 | 12 ft | 4 kts | 21° |
| 2026-05-09 12:01 | 39.17072 | 23.50079 | 16 ft | 8 kts | 22° |
| 2026-05-09 12:01 | 39.17164 | 23.50125 | 21 ft | 21 kts | 18° |
| 2026-05-09 12:02 | 39.17343 | 23.50203 | 31 ft | 32 kts | 20° |
| 2026-05-09 12:02 | 39.17515 | 23.50282 | 39 ft | 15 kts | 11° |
| 2026-05-09 12:02 | 39.17600 | 23.50214 | 38 ft | 13 kts | 352° |
| 2026-05-09 12:02 | 39.17682 | 23.50246 | 38 ft | 13 kts | 18° |
| 2026-05-09 12:03 | 39.17769 | 23.50273 | 38 ft | 13 kts | 18° |
| 2026-05-09 12:03 | 39.17855 | 23.50311 | 38 ft | 14 kts | 18° |
| 2026-05-09 12:03 | 39.17896 | 23.50308 | 38 ft | 4 kts | 295° |
| 2026-05-09 12:03 | 39.17905 | 23.50256 | 38 ft | 8 kts | 290° |
| 2026-05-09 12:04 | 39.17909 | 23.50241 | 38 ft | 0 kts | 290° |